Time;durP1;ratioP1;P1;durP2;ratioP2;P2;SDS_P1;SDS_P2;PMS_P1;PMS_P2;Temp;Humidity;BMP_temperature;BMP_pressure;BME280_temperature;BME280_humidity;BME280_pressure;Samples;Min_cycle;Max_cycle;Signal;HPM_P1;HPM_P2
2021/10/05 00:01:11;;;;;;;4.97;4.57;;;12.40;99.90;;;;;;5020306;28;20232;-78
2021/10/05 00:03:37;;;;;;;5.20;4.47;;;12.40;99.90;;;;;;5001568;28;20221;-79
2021/10/05 00:06:03;;;;;;;5.80;5.40;;;12.40;99.90;;;;;;5019294;28;20668;-78
2021/10/05 00:08:29;;;;;;;5.43;5.03;;;12.40;99.90;;;;;;5000332;28;20197;-79
2021/10/05 00:10:55;;;;;;;5.07;4.67;;;12.40;99.90;;;;;;5018448;28;20198;-78
2021/10/05 00:13:21;;;;;;;5.13;4.63;;;12.40;99.90;;;;;;5018709;28;20182;-78
2021/10/05 00:15:47;;;;;;;5.07;4.67;;;12.40;99.90;;;;;;5019464;28;20167;-78
2021/10/05 00:18:13;;;;;;;5.20;4.80;;;12.30;99.90;;;;;;5019648;28;20236;-78
2021/10/05 00:20:39;;;;;;;5.10;4.70;;;12.30;99.90;;;;;;5002041;28;20642;-78
2021/10/05 00:23:04;;;;;;;5.70;5.13;;;12.30;99.90;;;;;;5001233;28;20592;-78
2021/10/05 00:25:30;;;;;;;5.10;4.70;;;12.40;99.90;;;;;;5019265;28;20215;-78
2021/10/05 00:27:56;;;;;;;5.50;4.90;;;12.40;99.90;;;;;;5005023;28;20195;-78
2021/10/05 00:30:21;;;;;;;5.23;4.83;;;12.50;99.90;;;;;;5004861;28;20174;-79
2021/10/05 00:32:47;;;;;;;5.10;4.70;;;12.50;99.90;;;;;;5003811;28;20177;-78
2021/10/05 00:35:12;;;;;;;5.93;5.43;;;12.40;99.90;;;;;;5002792;28;20269;-79
2021/10/05 00:37:38;;;;;;;5.53;5.10;;;12.50;99.90;;;;;;5002326;28;20180;-79
2021/10/05 00:40:05;;;;;;;5.43;4.97;;;12.40;99.90;;;;;;5019476;28;20261;-79
2021/10/05 00:42:31;;;;;;;6.00;5.50;;;12.40;99.90;;;;;;5019220;28;20179;-78
2021/10/05 00:44:57;;;;;;;6.13;5.53;;;12.40;99.90;;;;;;5019635;28;20194;-78
2021/10/05 00:47:23;;;;;;;6.30;5.80;;;12.40;99.90;;;;;;5020578;28;20178;-79
2021/10/05 00:49:49;;;;;;;6.53;6.03;;;12.30;99.90;;;;;;5021202;28;20555;-79
2021/10/05 00:52:16;;;;;;;6.50;5.90;;;12.40;99.90;;;;;;5003307;28;20171;-79
2021/10/05 00:54:42;;;;;;;6.60;6.00;;;12.40;99.90;;;;;;5002893;28;20171;-78
2021/10/05 00:57:09;;;;;;;6.30;5.80;;;12.40;99.90;;;;;;5003347;28;20178;-78
2021/10/05 00:59:35;;;;;;;6.07;5.57;;;12.40;99.90;;;;;;5020488;28;20194;-79
2021/10/05 01:02:05;;;;;;;6.30;5.80;;;12.40;99.90;;;;;;5002717;28;20261;-78
2021/10/05 01:04:30;;;;;;;6.93;6.30;;;12.50;99.90;;;;;;5002370;28;20245;-79
2021/10/05 01:06:58;;;;;;;6.53;6.00;;;12.50;99.90;;;;;;5020413;28;20169;-78
2021/10/05 01:09:25;;;;;;;6.83;6.20;;;12.40;99.90;;;;;;5020178;28;20204;-78
2021/10/05 01:11:50;;;;;;;7.43;6.47;;;12.50;99.90;;;;;;5020631;28;20175;-78
2021/10/05 01:14:16;;;;;;;7.17;6.57;;;12.50;99.90;;;;;;5002928;28;20599;-79
2021/10/05 01:16:42;;;;;;;7.30;6.70;;;12.50;99.90;;;;;;5002079;28;20186;-78
2021/10/05 01:19:07;;;;;;;7.30;6.60;;;12.50;99.90;;;;;;5019669;28;20244;-79
2021/10/05 01:21:33;;;;;;;7.17;6.50;;;12.40;99.90;;;;;;5002411;28;20265;-79
2021/10/05 01:24:11;;;;;;;6.90;6.30;;;12.40;99.90;;;;;;5047768;23;20249;-80
2021/10/05 01:26:37;;;;;;;6.87;6.30;;;12.40;99.90;;;;;;5048584;28;20207;-81
2021/10/05 01:29:04;;;;;;;6.87;6.37;;;12.40;99.90;;;;;;5030897;28;20201;-81
2021/10/05 01:31:32;;;;;;;7.03;6.53;;;12.40;99.90;;;;;;5044692;28;20182;-80
2021/10/05 01:33:59;;;;;;;7.87;7.17;;;12.50;99.90;;;;;;5014792;28;20547;-81
2021/10/05 01:36:25;;;;;;;6.73;6.13;;;12.40;99.90;;;;;;5009031;28;20235;-80
2021/10/05 01:38:51;;;;;;;7.83;7.13;;;12.50;99.90;;;;;;5015293;28;20654;-80
2021/10/05 01:41:16;;;;;;;7.67;6.97;;;12.50;99.90;;;;;;5016397;28;20271;-80
2021/10/05 01:43:42;;;;;;;7.23;6.63;;;12.50;99.90;;;;;;4997798;28;20218;-80
2021/10/05 01:46:13;;;;;;;7.43;6.83;;;12.50;99.90;;;;;;4998882;28;20181;-80
2021/10/05 01:48:39;;;;;;;7.60;6.90;;;12.40;99.90;;;;;;5017222;28;20204;-80
2021/10/05 01:51:05;;;;;;;8.50;7.67;;;12.50;99.90;;;;;;4999699;28;20190;-79
2021/10/05 01:53:31;;;;;;;8.70;7.20;;;12.50;99.90;;;;;;5016425;28;20210;-79
2021/10/05 01:55:57;;;;;;;8.10;7.33;;;12.50;99.90;;;;;;5017400;28;20713;-79
2021/10/05 01:58:22;;;;;;;8.60;7.80;;;12.50;99.90;;;;;;5017707;28;20187;-79
2021/10/05 02:00:48;;;;;;;7.90;7.20;;;12.40;99.90;;;;;;5000050;28;20553;-80
2021/10/05 02:03:14;;;;;;;7.77;7.07;;;12.50;99.90;;;;;;5017219;28;20206;-80
2021/10/05 02:05:41;;;;;;;8.40;7.47;;;12.50;99.90;;;;;;4992601;28;20178;-80
2021/10/05 02:08:08;;;;;;;7.90;7.10;;;12.40;99.90;;;;;;5015656;28;20171;-79
2021/10/05 02:10:34;;;;;;;8.20;7.43;;;12.50;99.90;;;;;;5017325;28;20188;-79
2021/10/05 02:13:00;;;;;;;8.30;7.60;;;12.50;99.90;;;;;;5017116;28;20690;-79
2021/10/05 02:15:25;;;;;;;8.07;7.27;;;12.50;99.90;;;;;;5016854;28;20249;-79
2021/10/05 02:17:51;;;;;;;7.77;6.97;;;12.50;99.90;;;;;;4999386;28;20182;-79
2021/10/05 02:20:17;;;;;;;7.60;6.90;;;12.50;99.90;;;;;;5016526;28;20592;-79
2021/10/05 02:22:43;;;;;;;7.40;6.80;;;12.50;99.90;;;;;;5016820;28;20265;-79
2021/10/05 02:25:09;;;;;;;8.10;7.40;;;12.50;99.90;;;;;;4999209;28;20580;-80
2021/10/05 02:27:35;;;;;;;7.93;7.20;;;12.50;99.90;;;;;;5017348;28;20184;-79
2021/10/05 02:30:03;;;;;;;7.67;6.97;;;12.50;99.90;;;;;;5017009;28;20179;-79
2021/10/05 02:32:28;;;;;;;9.40;7.67;;;12.40;99.90;;;;;;4999082;28;20256;-80
2021/10/05 02:34:54;;;;;;;8.03;7.33;;;12.50;99.90;;;;;;5016863;28;20182;-79
2021/10/05 02:37:20;;;;;;;8.30;7.43;;;12.50;99.90;;;;;;5017108;28;20256;-79
2021/10/05 02:39:46;;;;;;;10.87;7.57;;;12.50;99.90;;;;;;5017636;28;20190;-80
2021/10/05 02:42:11;;;;;;;10.83;8.10;;;12.40;99.90;;;;;;5016204;28;20180;-80
2021/10/05 02:44:41;;;;;;;7.10;6.50;;;12.40;99.90;;;;;;4998672;28;20209;-80
2021/10/05 02:47:08;;;;;;;8.27;7.40;;;12.40;99.90;;;;;;4998337;28;20182;-80
2021/10/05 02:49:34;;;;;;;7.20;6.57;;;12.40;99.90;;;;;;5016736;28;20178;-79
2021/10/05 02:51:59;;;;;;;7.73;6.80;;;12.40;99.90;;;;;;5016604;28;20183;-79
2021/10/05 02:54:25;;;;;;;7.33;6.63;;;12.40;99.90;;;;;;4999635;28;20202;-80
2021/10/05 02:56:51;;;;;;;7.43;6.83;;;12.40;99.90;;;;;;5016719;28;20245;-80
2021/10/05 02:59:17;;;;;;;7.47;6.77;;;12.40;99.90;;;;;;5016055;28;20274;-79
2021/10/05 03:01:43;;;;;;;7.50;6.80;;;12.40;99.90;;;;;;5016649;28;20206;-79
2021/10/05 03:04:10;;;;;;;8.70;7.40;;;12.50;99.90;;;;;;4998537;28;20206;-79
2021/10/05 03:06:35;;;;;;;7.33;6.70;;;12.40;99.90;;;;;;5016624;28;20179;-79
2021/10/05 03:09:01;;;;;;;7.97;7.17;;;12.40;99.90;;;;;;5016488;28;20181;-79
2021/10/05 03:11:27;;;;;;;8.23;7.53;;;12.40;99.90;;;;;;5016125;28;20219;-79
2021/10/05 03:13:52;;;;;;;8.20;7.50;;;12.40;99.90;;;;;;5017099;28;20717;-79
2021/10/05 03:16:18;;;;;;;8.50;7.70;;;12.40;99.90;;;;;;4998768;28;20180;-79
2021/10/05 03:18:45;;;;;;;8.77;7.97;;;12.40;99.90;;;;;;5016657;28;20714;-79
2021/10/05 03:21:11;;;;;;;8.00;7.30;;;12.40;99.90;;;;;;5016460;28;20182;-79
2021/10/05 03:23:37;;;;;;;8.90;6.90;;;12.40;99.90;;;;;;5016718;28;20704;-79
2021/10/05 03:26:04;;;;;;;7.77;6.90;;;12.40;99.90;;;;;;5002353;28;20179;-79
2021/10/05 03:28:31;;;;;;;8.30;7.43;;;12.40;99.90;;;;;;5002158;28;20174;-79
2021/10/05 03:30:58;;;;;;;7.80;7.10;;;12.40;99.90;;;;;;5002619;28;20646;-79
2021/10/05 03:33:25;;;;;;;7.37;6.77;;;12.40;99.90;;;;;;5002261;28;20194;-79
2021/10/05 03:35:51;;;;;;;9.87;7.27;;;12.40;99.90;;;;;;5002105;28;20181;-79
2021/10/05 03:38:16;;;;;;;8.40;7.70;;;12.40;99.90;;;;;;5002014;28;20179;-79
2021/10/05 03:40:42;;;;;;;9.70;7.60;;;12.40;99.90;;;;;;5019776;28;20182;-79
2021/10/05 03:43:08;;;;;;;8.57;7.77;;;12.40;99.90;;;;;;5019692;28;20253;-79
2021/10/05 03:45:33;;;;;;;8.00;7.20;;;12.40;99.90;;;;;;5019821;28;20206;-79
2021/10/05 03:47:59;;;;;;;9.87;8.30;;;12.40;99.90;;;;;;5019070;28;20707;-79
2021/10/05 03:50:25;;;;;;;10.17;8.83;;;12.40;99.90;;;;;;5002427;28;20187;-79
2021/10/05 03:52:51;;;;;;;11.03;8.60;;;12.40;99.90;;;;;;5001581;28;20199;-79
2021/10/05 03:55:17;;;;;;;9.53;8.60;;;12.40;99.90;;;;;;5019271;28;20174;-79
2021/10/05 03:57:43;;;;;;;8.67;7.97;;;12.40;99.90;;;;;;5001656;28;20178;-79
2021/10/05 04:00:10;;;;;;;9.40;8.50;;;12.50;99.90;;;;;;5000983;28;20189;-80
2021/10/05 04:02:35;;;;;;;10.27;9.20;;;12.50;99.90;;;;;;5021369;28;20214;-79
2021/10/05 04:05:02;;;;;;;10.90;9.73;;;12.50;99.90;;;;;;5018247;28;20214;-79
2021/10/05 04:07:27;;;;;;;10.83;9.73;;;12.50;99.90;;;;;;5017735;28;20545;-79
2021/10/05 04:09:53;;;;;;;10.50;9.53;;;12.50;99.90;;;;;;4998036;28;20179;-79
2021/10/05 04:12:19;;;;;;;10.53;9.53;;;12.50;99.90;;;;;;5027405;28;20237;-80
2021/10/05 04:14:44;;;;;;;12.20;10.90;;;12.40;99.90;;;;;;5027769;28;20658;-80
2021/10/05 04:17:11;;;;;;;10.53;9.53;;;12.50;99.90;;;;;;5026965;28;20181;-80
2021/10/05 04:19:36;;;;;;;10.90;9.37;;;12.40;99.90;;;;;;5009370;28;20181;-81
2021/10/05 04:22:03;;;;;;;10.47;9.47;;;12.40;99.90;;;;;;5027904;28;20186;-80
2021/10/05 04:24:28;;;;;;;11.33;10.33;;;12.30;99.90;;;;;;5009425;28;20215;-80
2021/10/05 04:26:57;;;;;;;12.53;10.30;;;12.30;99.90;;;;;;5010386;28;20221;-80
2021/10/05 04:29:22;;;;;;;11.50;10.37;;;12.30;99.90;;;;;;5028767;28;20251;-80
2021/10/05 04:31:48;;;;;;;11.67;10.67;;;12.40;99.90;;;;;;5028342;28;20180;-80
2021/10/05 04:34:14;;;;;;;14.43;12.13;;;12.40;99.90;;;;;;5026682;28;20206;-80
2021/10/05 04:36:39;;;;;;;14.77;13.17;;;12.40;99.90;;;;;;5026732;28;20198;-80
2021/10/05 04:39:06;;;;;;;14.53;12.80;;;12.40;99.90;;;;;;5026304;28;20599;-79
2021/10/05 04:41:31;;;;;;;13.23;11.90;;;12.40;99.90;;;;;;5024265;28;20671;-81
2021/10/05 04:43:57;;;;;;;14.20;12.70;;;12.40;99.90;;;;;;5023394;28;20332;-80
2021/10/05 04:46:23;;;;;;;15.10;11.70;;;12.30;99.90;;;;;;5021703;28;20207;-79
2021/10/05 04:48:48;;;;;;;12.73;11.20;;;12.40;99.90;;;;;;5024187;28;20186;-79
2021/10/05 04:51:14;;;;;;;14.10;11.97;;;12.40;99.90;;;;;;5025668;28;20176;-80
2021/10/05 04:53:39;;;;;;;13.47;12.23;;;12.40;99.90;;;;;;5008193;28;20206;-79
2021/10/05 04:56:05;;;;;;;13.63;12.33;;;12.40;99.90;;;;;;5008025;28;20186;-79
2021/10/05 04:58:31;;;;;;;16.80;12.70;;;12.40;99.90;;;;;;5026426;28;20187;-80
2021/10/05 05:00:56;;;;;;;15.23;13.33;;;12.40;99.90;;;;;;5026786;28;20324;-80
2021/10/05 05:03:27;;;;;;;14.83;13.23;;;12.40;99.90;;;;;;5025738;28;20234;-79
2021/10/05 05:05:53;;;;;;;12.57;11.33;;;12.40;99.90;;;;;;5006467;28;20235;-80
2021/10/05 05:08:18;;;;;;;13.20;11.93;;;12.40;99.90;;;;;;5008665;28;20589;-79
2021/10/05 05:10:44;;;;;;;14.57;13.10;;;12.40;99.90;;;;;;5025413;28;20186;-80
2021/10/05 05:13:10;;;;;;;15.67;13.77;;;12.40;99.90;;;;;;5009451;28;20201;-80
2021/10/05 05:15:36;;;;;;;15.13;13.30;;;12.40;99.90;;;;;;5026592;28;20323;-81
2021/10/05 05:18:01;;;;;;;13.43;12.13;;;12.40;99.90;;;;;;5028519;28;20183;-80
2021/10/05 05:20:27;;;;;;;16.13;12.33;;;12.40;99.90;;;;;;5027694;28;20252;-79
2021/10/05 05:22:53;;;;;;;15.30;12.20;;;12.30;99.90;;;;;;5009349;28;20225;-80
2021/10/05 05:25:19;;;;;;;14.83;12.70;;;12.30;99.90;;;;;;5011763;28;20745;-80
2021/10/05 05:27:45;;;;;;;17.57;13.50;;;12.30;99.90;;;;;;5010195;28;20297;-81
2021/10/05 05:30:10;;;;;;;15.07;12.60;;;12.30;99.90;;;;;;5008644;28;20669;-81
2021/10/05 05:32:36;;;;;;;17.97;13.40;;;12.30;99.90;;;;;;5006895;28;20199;-80
2021/10/05 05:35:02;;;;;;;14.83;13.33;;;12.30;99.90;;;;;;5027905;28;20183;-81
2021/10/05 05:37:28;;;;;;;16.00;13.10;;;12.30;99.90;;;;;;5028126;28;20238;-81
2021/10/05 05:39:54;;;;;;;17.97;13.03;;;12.30;99.90;;;;;;5009771;28;20737;-81
2021/10/05 05:42:20;;;;;;;21.57;14.33;;;12.30;99.90;;;;;;5027244;28;20179;-81
2021/10/05 05:44:45;;;;;;;17.27;13.50;;;12.40;99.90;;;;;;5025398;28;20210;-80
2021/10/05 05:47:11;;;;;;;22.00;14.20;;;12.30;99.90;;;;;;5007937;28;20191;-81
2021/10/05 05:49:37;;;;;;;17.20;13.63;;;12.30;99.90;;;;;;5025955;28;20229;-80
2021/10/05 05:52:03;;;;;;;16.97;14.40;;;12.40;99.90;;;;;;5025355;28;20637;-80
2021/10/05 05:54:34;;;;;;;16.47;14.23;;;12.40;99.90;;;;;;5009137;28;20226;-81
2021/10/05 05:57:00;;;;;;;16.63;13.63;;;12.40;99.90;;;;;;5009243;28;20190;-81
2021/10/05 05:59:26;;;;;;;21.87;15.90;;;12.40;99.90;;;;;;5009371;28;20181;-80
2021/10/05 06:01:52;;;;;;;20.70;16.17;;;12.40;99.90;;;;;;5027625;28;20260;-81
2021/10/05 06:04:17;;;;;;;18.03;14.63;;;12.40;99.90;;;;;;5009919;28;20221;-80
2021/10/05 06:06:43;;;;;;;21.00;15.73;;;12.50;99.90;;;;;;5025413;28;20241;-80
2021/10/05 06:09:09;;;;;;;14.93;13.40;;;12.50;99.90;;;;;;5023718;28;20181;-80
2021/10/05 06:11:38;;;;;;;17.47;13.50;;;12.50;99.90;;;;;;5024813;28;20183;-81
2021/10/05 06:14:04;;;;;;;15.07;13.00;;;12.40;99.90;;;;;;5025381;28;20194;-80
2021/10/05 06:16:30;;;;;;;15.70;13.33;;;12.40;99.90;;;;;;5024635;28;20178;-80
2021/10/05 06:18:56;;;;;;;15.97;13.13;;;12.50;99.90;;;;;;5021341;28;20273;-80
2021/10/05 06:21:21;;;;;;;15.03;12.87;;;12.40;99.90;;;;;;5024680;28;20198;-80
2021/10/05 06:23:47;;;;;;;13.83;12.43;;;12.40;99.90;;;;;;5024707;28;20211;-80
2021/10/05 06:26:13;;;;;;;14.13;12.73;;;12.40;99.90;;;;;;5026702;28;20175;-79
2021/10/05 06:28:39;;;;;;;14.80;13.30;;;12.40;99.90;;;;;;5025323;28;20226;-79
2021/10/05 06:31:05;;;;;;;13.77;12.47;;;12.40;99.90;;;;;;5008047;28;20196;-79
2021/10/05 06:33:31;;;;;;;13.13;11.93;;;12.40;99.90;;;;;;5007871;28;20199;-79
2021/10/05 06:35:57;;;;;;;13.00;11.80;;;12.50;99.90;;;;;;5025205;28;20214;-79
2021/10/05 06:38:23;;;;;;;11.73;10.63;;;12.50;99.90;;;;;;5026285;28;20214;-81
2021/10/05 06:40:49;;;;;;;12.07;11.07;;;12.50;99.90;;;;;;5012916;28;20191;-82
2021/10/05 06:43:14;;;;;;;11.20;10.30;;;12.50;99.90;;;;;;5026196;28;20201;-81
2021/10/05 06:45:40;;;;;;;10.33;9.53;;;12.40;99.90;;;;;;5027393;28;20205;-81
2021/10/05 06:48:07;;;;;;;11.10;10.10;;;12.30;99.90;;;;;;5026118;28;20245;-82
2021/10/05 06:50:34;;;;;;;9.40;8.70;;;12.40;99.90;;;;;;5008309;28;20182;-82
2021/10/05 06:53:01;;;;;;;9.33;8.53;;;12.50;99.90;;;;;;5026229;28;20201;-82
2021/10/05 06:55:28;;;;;;;9.03;8.23;;;12.40;99.90;;;;;;5026535;28;20174;-82
2021/10/05 06:57:54;;;;;;;9.87;8.90;;;12.40;99.90;;;;;;5028790;28;20183;-81
2021/10/05 07:00:19;;;;;;;9.53;8.73;;;12.40;99.90;;;;;;5029596;28;20646;-82
2021/10/05 07:02:47;;;;;;;8.27;7.47;;;12.40;99.90;;;;;;5028207;28;20203;-82
2021/10/05 07:05:17;;;;;;;8.80;8.00;;;12.40;99.90;;;;;;5028565;28;20577;-80
2021/10/05 07:07:49;;;;;;;8.60;7.90;;;12.40;99.90;;;;;;5007511;28;20193;-80
2021/10/05 07:10:17;;;;;;;8.57;7.87;;;12.40;99.90;;;;;;4991466;28;20175;-82
2021/10/05 07:12:43;;;;;;;9.53;8.83;;;12.50;99.90;;;;;;5009807;28;20202;-82
2021/10/05 07:15:11;;;;;;;8.63;7.90;;;12.50;99.90;;;;;;5025407;28;20548;-81
2021/10/05 07:17:40;;;;;;;8.40;7.67;;;12.60;99.90;;;;;;5023417;28;20263;-81
2021/10/05 07:20:07;;;;;;;8.23;7.53;;;12.60;99.90;;;;;;5005317;28;20605;-81
2021/10/05 07:22:34;;;;;;;8.47;7.87;;;12.50;99.90;;;;;;5007196;28;20762;-81
2021/10/05 07:25:02;;;;;;;7.33;6.73;;;12.60;99.90;;;;;;5021855;28;20201;-79
2021/10/05 07:27:28;;;;;;;7.30;6.73;;;12.70;99.90;;;;;;5053951;23;20230;-77
2021/10/05 07:29:54;;;;;;;6.47;5.97;;;12.70;99.90;;;;;;5038013;28;20170;-77
2021/10/05 07:32:20;;;;;;;6.50;6.00;;;12.80;99.90;;;;;;5037569;28;20175;-78
2021/10/05 07:34:46;;;;;;;7.03;6.33;;;12.70;99.90;;;;;;5035874;28;20182;-77
2021/10/05 07:37:11;;;;;;;5.83;5.43;;;12.80;99.90;;;;;;5036246;28;20216;-77
2021/10/05 07:39:38;;;;;;;6.47;5.73;;;12.90;99.90;;;;;;5036085;28;20177;-77
2021/10/05 07:42:05;;;;;;;5.40;5.00;;;13.00;99.90;;;;;;5037684;28;20185;-77
2021/10/05 07:44:32;;;;;;;6.07;5.67;;;13.10;99.90;;;;;;5037315;28;20208;-77
2021/10/05 07:46:59;;;;;;;4.53;4.23;;;13.10;99.90;;;;;;5037487;28;20199;-78
2021/10/05 07:49:25;;;;;;;4.73;4.13;;;13.20;99.90;;;;;;5037651;28;20174;-77
2021/10/05 07:51:51;;;;;;;4.17;3.87;;;13.20;99.90;;;;;;5036872;28;20185;-78
2021/10/05 07:54:17;;;;;;;3.47;3.27;;;13.20;99.90;;;;;;5037120;28;20189;-77
2021/10/05 07:56:43;;;;;;;3.73;3.40;;;13.20;99.90;;;;;;5036583;28;20596;-78
2021/10/05 07:59:08;;;;;;;3.47;3.20;;;13.30;99.90;;;;;;5037461;28;20630;-77
2021/10/05 08:01:37;;;;;;;3.33;3.13;;;13.30;99.90;;;;;;5034746;28;20261;-77
2021/10/05 08:04:03;;;;;;;2.77;2.57;;;13.30;99.90;;;;;;5034218;28;20276;-77
2021/10/05 08:06:29;;;;;;;3.20;3.00;;;13.20;99.90;;;;;;5034137;28;20549;-77
2021/10/05 08:08:54;;;;;;;3.23;3.03;;;13.30;99.90;;;;;;5033247;28;20174;-77
2021/10/05 08:11:21;;;;;;;2.87;2.67;;;13.30;99.90;;;;;;5034034;28;20186;-77
2021/10/05 08:13:47;;;;;;;2.40;2.20;;;13.40;99.90;;;;;;5035626;28;20170;-77
2021/10/05 08:16:13;;;;;;;1.83;1.70;;;13.50;99.90;;;;;;5037159;28;20569;-77
2021/10/05 08:18:39;;;;;;;2.17;1.57;;;13.60;99.90;;;;;;5036555;28;20174;-77
2021/10/05 08:21:04;;;;;;;1.77;1.50;;;13.60;99.90;;;;;;5038266;28;20182;-78
2021/10/05 08:23:30;;;;;;;1.50;1.40;;;13.60;99.90;;;;;;5036235;28;20181;-77
2021/10/05 08:25:56;;;;;;;1.50;1.40;;;13.60;99.90;;;;;;5033347;28;20171;-78
2021/10/05 08:28:22;;;;;;;1.20;1.00;;;13.60;99.90;;;;;;5036092;28;20209;-77
2021/10/05 08:30:48;;;;;;;1.07;0.80;;;13.50;99.90;;;;;;5037493;28;20213;-77
2021/10/05 08:33:14;;;;;;;0.90;0.90;;;13.50;99.90;;;;;;5037181;28;20194;-77
2021/10/05 08:35:40;;;;;;;2.10;1.00;;;13.50;99.90;;;;;;5037264;28;20182;-77
2021/10/05 08:38:06;;;;;;;1.20;1.10;;;13.50;99.90;;;;;;5034698;28;20193;-77
2021/10/05 08:40:33;;;;;;;1.23;0.87;;;13.50;99.90;;;;;;5036523;28;20181;-78
2021/10/05 08:43:00;;;;;;;0.63;0.50;;;13.60;99.90;;;;;;5037596;28;20173;-77
2021/10/05 08:45:26;;;;;;;0.90;0.60;;;13.60;99.90;;;;;;5036958;28;20248;-78
2021/10/05 08:47:52;;;;;;;0.87;0.40;;;13.60;99.90;;;;;;5036605;28;20292;-77
2021/10/05 08:50:18;;;;;;;0.50;0.50;;;13.60;99.90;;;;;;5035570;28;20623;-77
2021/10/05 08:52:45;;;;;;;0.40;0.40;;;13.60;99.90;;;;;;5037607;28;20182;-77
2021/10/05 08:55:11;;;;;;;0.43;0.30;;;13.60;99.90;;;;;;5038893;28;20179;-78
2021/10/05 08:57:37;;;;;;;0.40;0.40;;;13.60;99.90;;;;;;5036843;28;20194;-77
2021/10/05 09:00:05;;;;;;;1.03;0.53;;;13.60;99.90;;;;;;5037682;28;20304;-77
2021/10/05 09:02:46;;;;;;;2.97;0.70;;;13.60;99.90;;;;;;5038554;28;20183;-78
2021/10/05 09:05:14;;;;;;;0.70;0.70;;;13.60;99.90;;;;;;5037998;28;20198;-77
2021/10/05 09:07:45;;;;;;;0.70;0.70;;;13.60;99.90;;;;;;5037743;28;20190;-77
2021/10/05 09:10:16;;;;;;;1.90;0.70;;;13.60;99.90;;;;;;5038479;28;20170;-77
2021/10/05 09:12:42;;;;;;;0.70;0.70;;;13.70;99.90;;;;;;5038350;28;20256;-78
2021/10/05 09:15:10;;;;;;;2.80;0.70;;;13.60;99.90;;;;;;5038141;28;20182;-78
2021/10/05 09:17:37;;;;;;;2.63;0.50;;;13.60;99.90;;;;;;5037272;28;20194;-78
2021/10/05 09:20:22;;;;;;;0.67;0.67;;;13.60;99.90;;;;;;5036985;28;20180;-77
2021/10/05 09:23:09;;;;;;;0.60;0.50;;;13.60;99.90;;;;;;5035645;28;20662;-78
2021/10/05 09:25:42;;;;;;;0.70;0.53;;;13.60;99.90;;;;;;5037436;28;20191;-78
2021/10/05 09:28:16;;;;;;;0.50;0.40;;;13.70;99.90;;;;;;5037701;28;20528;-77
2021/10/05 09:30:43;;;;;;;1.17;0.77;;;13.80;99.90;;;;;;5037855;28;20719;-77
2021/10/05 09:33:09;;;;;;;1.50;0.80;;;13.80;99.90;;;;;;5037358;28;20213;-78
2021/10/05 09:35:45;;;;;;;0.60;0.60;;;13.80;99.90;;;;;;5037887;28;20182;-77
2021/10/05 09:38:14;;;;;;;0.80;0.60;;;13.80;99.90;;;;;;5038652;28;20182;-77
2021/10/05 09:40:40;;;;;;;1.40;1.00;;;13.90;99.90;;;;;;5036840;28;20182;-77
2021/10/05 09:43:17;;;;;;;0.27;0.23;;;13.90;99.90;;;;;;5036996;28;20653;-77
2021/10/05 09:45:43;;;;;;;0.97;0.60;;;13.90;99.90;;;;;;5036998;28;20194;-77
2021/10/05 09:48:09;;;;;;;0.53;0.40;;;13.80;99.90;;;;;;5037438;28;20181;-78
2021/10/05 09:50:35;;;;;;;1.00;0.50;;;13.80;99.90;;;;;;5037311;28;20592;-77
2021/10/05 09:53:10;;;;;;;0.83;0.60;;;13.90;99.90;;;;;;5037005;28;20178;-77
2021/10/05 09:55:41;;;;;;;1.90;0.90;;;13.90;99.90;;;;;;5037221;28;20229;-77
2021/10/05 09:58:08;;;;;;;1.60;0.57;;;13.90;99.90;;;;;;5037881;28;20240;-77
2021/10/05 10:00:38;;;;;;;0.80;0.50;;;13.90;99.90;;;;;;5036285;28;20186;-77
2021/10/05 10:03:06;;;;;;;0.57;0.37;;;13.90;99.90;;;;;;5034809;28;20664;-77
2021/10/05 10:05:32;;;;;;;0.97;0.60;;;13.80;99.90;;;;;;5035840;28;20187;-77
2021/10/05 10:07:59;;;;;;;0.50;0.50;;;13.80;99.90;;;;;;5032902;28;20190;-77
2021/10/05 10:10:34;;;;;;;2.80;0.80;;;13.80;99.90;;;;;;5033633;28;20206;-77
2021/10/05 10:13:04;;;;;;;1.67;0.50;;;13.80;99.90;;;;;;5031821;28;20182;-77
2021/10/05 10:15:33;;;;;;;0.87;0.50;;;13.80;99.90;;;;;;5032794;28;20174;-76
2021/10/05 10:18:09;;;;;;;0.60;0.60;;;13.90;99.90;;;;;;5033023;28;20201;-77
2021/10/05 10:20:36;;;;;;;1.17;0.40;;;14.00;99.90;;;;;;5032800;28;20189;-76
2021/10/05 10:23:14;;;;;;;0.70;0.40;;;14.00;99.90;;;;;;5033479;28;20179;-78
2021/10/05 10:25:53;;;;;;;1.60;0.40;;;14.00;99.90;;;;;;5032666;28;20194;-77
2021/10/05 10:28:27;;;;;;;0.87;0.27;;;14.10;99.90;;;;;;5023088;28;20174;-77
2021/10/05 10:30:55;;;;;;;0.60;0.30;;;14.10;99.90;;;;;;5019330;28;20178;-77
2021/10/05 10:33:23;;;;;;;0.17;0.17;;;14.00;99.90;;;;;;5036391;28;20182;-77
2021/10/05 10:35:52;;;;;;;0.30;0.30;;;13.90;99.90;;;;;;5035536;28;20174;-77
2021/10/05 10:38:25;;;;;;;0.27;0.27;;;13.90;99.90;;;;;;5037053;28;20579;-77
2021/10/05 10:40:52;;;;;;;0.67;0.30;;;13.80;99.90;;;;;;5038254;28;20189;-77
2021/10/05 10:43:20;;;;;;;2.10;0.50;;;13.90;99.90;;;;;;5043042;28;20202;-77
2021/10/05 10:46:04;;;;;;;0.30;0.30;;;13.90;99.90;;;;;;5042960;28;20202;-77
2021/10/05 10:48:37;;;;;;;0.43;0.40;;;13.90;99.90;;;;;;5038735;28;20193;-77
2021/10/05 10:51:16;;;;;;;0.40;0.40;;;13.90;99.90;;;;;;5044297;28;20177;-77
2021/10/05 10:53:44;;;;;;;0.60;0.50;;;13.90;99.90;;;;;;5051210;28;20190;-77
2021/10/05 10:56:13;;;;;;;2.20;0.80;;;13.90;99.90;;;;;;5045423;28;20205;-77
2021/10/05 10:58:45;;;;;;;0.80;0.50;;;13.90;99.90;;;;;;5040336;28;20179;-77
2021/10/05 11:01:15;;;;;;;0.70;0.40;;;13.90;99.90;;;;;;5038986;28;20170;-77
2021/10/05 11:03:42;;;;;;;0.67;0.30;;;13.80;99.90;;;;;;5037863;28;20162;-78
2021/10/05 11:06:16;;;;;;;1.17;0.80;;;13.70;99.90;;;;;;5041900;28;20197;-78
2021/10/05 11:08:55;;;;;;;1.93;1.17;;;13.70;99.90;;;;;;5043828;28;20641;-77
2021/10/05 11:11:34;;;;;;;2.23;0.80;;;13.60;99.90;;;;;;5047039;28;20170;-78
2021/10/05 11:14:03;;;;;;;1.47;1.00;;;13.70;99.90;;;;;;5038573;28;20240;-78
2021/10/05 11:16:31;;;;;;;0.47;0.47;;;13.60;99.90;;;;;;5043906;28;20284;-78
2021/10/05 11:19:16;;;;;;;1.17;0.43;;;13.60;99.90;;;;;;5042913;28;20273;-78
2021/10/05 11:21:48;;;;;;;0.47;0.47;;;13.70;99.90;;;;;;5047297;28;20546;-78
2021/10/05 11:24:16;;;;;;;0.70;0.50;;;13.70;99.90;;;;;;5048123;28;20202;-78
2021/10/05 11:26:46;;;;;;;0.97;0.60;;;13.70;99.90;;;;;;5051432;28;20304;-78
2021/10/05 11:29:25;;;;;;;1.50;0.60;;;13.70;99.90;;;;;;5052985;28;20174;-78
2021/10/05 11:31:55;;;;;;;0.53;0.53;;;13.70;99.90;;;;;;5047475;28;20185;-78
2021/10/05 11:34:21;;;;;;;1.03;0.70;;;13.80;99.90;;;;;;5050974;28;20182;-78
2021/10/05 11:36:47;;;;;;;0.80;0.77;;;13.80;99.90;;;;;;5046380;28;20627;-78
2021/10/05 11:39:24;;;;;;;1.20;1.00;;;13.80;99.90;;;;;;5042604;28;20178;-78
2021/10/05 11:41:54;;;;;;;0.83;0.80;;;13.80;99.90;;;;;;5047951;28;20177;-76
2021/10/05 11:44:23;;;;;;;1.47;1.00;;;13.80;99.90;;;;;;5038936;28;20221;-76
2021/10/05 11:46:57;;;;;;;1.07;0.97;;;13.80;99.90;;;;;;5042815;28;20648;-76
2021/10/05 11:49:28;;;;;;;0.83;0.83;;;13.80;99.90;;;;;;5033624;28;20195;-76
2021/10/05 11:51:55;;;;;;;1.07;1.00;;;13.70;99.90;;;;;;5036883;28;20187;-77
2021/10/05 11:54:23;;;;;;;1.23;1.10;;;13.60;99.90;;;;;;5037143;28;20288;-77
2021/10/05 11:56:50;;;;;;;0.80;0.60;;;13.60;99.90;;;;;;5042444;28;20606;-77
2021/10/05 11:59:28;;;;;;;2.10;0.90;;;13.60;99.90;;;;;;5038433;28;20535;-77
2021/10/05 12:02:06;;;;;;;1.57;1.17;;;13.60;99.90;;;;;;5041468;28;20277;-77
2021/10/05 12:04:33;;;;;;;3.20;1.70;;;13.60;99.90;;;;;;5037435;28;20233;-77
2021/10/05 12:07:01;;;;;;;1.90;1.20;;;13.60;99.90;;;;;;5038671;28;20199;-77
2021/10/05 12:09:29;;;;;;;1.50;1.40;;;13.70;99.90;;;;;;5044077;28;20588;-77
2021/10/05 12:12:18;;;;;;;1.73;1.00;;;13.60;99.90;;;;;;5041143;28;20220;-77
2021/10/05 12:14:55;;;;;;;1.77;1.10;;;13.60;99.90;;;;;;5039341;28;20195;-77
2021/10/05 12:17:22;;;;;;;1.73;1.50;;;13.60;99.90;;;;;;5043429;28;20204;-77
2021/10/05 12:19:53;;;;;;;2.40;1.47;;;13.60;99.90;;;;;;5037946;28;20186;-77
2021/10/05 12:22:28;;;;;;;1.40;1.27;;;13.60;99.90;;;;;;5042774;28;20179;-77
2021/10/05 12:25:06;;;;;;;2.40;1.60;;;13.60;99.90;;;;;;5035793;28;20280;-77
2021/10/05 12:27:32;;;;;;;1.27;1.17;;;13.70;99.90;;;;;;5035245;28;20304;-77
2021/10/05 12:29:58;;;;;;;1.60;1.50;;;13.70;99.90;;;;;;5030907;28;20254;-77
2021/10/05 12:32:48;;;;;;;2.43;1.60;;;13.70;99.90;;;;;;5033608;28;20217;-78
2021/10/05 12:35:25;;;;;;;2.43;1.60;;;13.70;99.90;;;;;;5033325;28;20213;-78
2021/10/05 12:38:11;;;;;;;2.27;1.90;;;13.60;99.90;;;;;;5041577;28;20228;-78
2021/10/05 12:40:46;;;;;;;2.90;1.80;;;13.70;99.90;;;;;;5038812;28;20177;-78
2021/10/05 12:43:14;;;;;;;10.70;2.10;;;13.70;99.90;;;;;;5040102;28;20228;-78
2021/10/05 12:45:49;;;;;;;2.17;1.93;;;13.70;99.90;;;;;;5038625;28;20232;-78